• Join FlightAware (Why Join?)
  • Login
  • US Flag 
Rudolph Flight #1: Arrived! 
12:00PM EST


 

Airport Tracker/Info


-or-


 

Live Flight TrackerFlight Track Log ✈ SWA303 ✈ 25 de Apr de 2013 ✈ KDEN - KIAD

Flight Track Log - Related Links

Times and Time Zones

All times are in EDT time to prevent confusion due to time zone crossing. See the SWA303 flight status page for this flight to view local times or setup timezone preferences in your user account.

Time Position Orientation Groundspeed Altitude Reporting Facility
EDT Latitude Longitude Course Direction KTS MPH feet Rate Location/Type
02:50PM 39.9333 -104.6500 84° East 207 238 7,500  Level Denver TRACON
02:52PM 39.9506 -104.5011 81° East 299 344 10,000 1,380 Climbing Denver Center
02:52PM 39.9500 -104.4667 91° East 314 361 10,000 900 Level Denver TRACON
02:53PM 39.9333 -104.3333 99° East 321 369 11,400 1,860 Climbing Denver TRACON
02:54PM 39.9250 -104.2664 99° East 325 374 13,400 2,700 Climbing Denver Center
02:55PM 39.9031 -104.1431 103° East 346 398 16,400 2,340 Climbing Denver Center
02:56PM 39.8759 -104.5041 84° East  Level Estimated
02:56PM 39.8797 -103.9681 100° East 406 467 18,800  Level Denver Center
02:57PM 39.8792 -103.8039 90° East 427 491 21,800 1,980 Climbing Denver Center
02:58PM 39.8914 -103.6517 84° East 430 495 23,000 480 Climbing Denver Center
02:59PM 39.9131 -103.4714 81° East 448 516 23,000 1,140 Level Denver Center
03:00PM 39.9336 -103.2861 82° East 456 525 25,600 2,220 Climbing Denver Center
03:01PM 39.9550 -103.1006 81° East 465 535 27,600 1,620 Climbing Denver Center
03:02PM 39.9733 -102.9328 82° East 485 558 29,000 1,500 Climbing Denver Center
03:03PM 39.9950 -102.7283 82° East 510 587 30,700 1,440 Climbing Denver Center
03:04PM 40.0133 -102.5497 82° East 519 597 32,000 1,560 Climbing Denver Center
03:06PM 40.0268 -102.3656 83° East  Level FlightAware Approximate
03:06PM 40.0544 -102.1569 83° East 526 605 35,600  Level Denver Center
03:08PM 40.0753 -101.9483 82° East 522 601 37,300 1,200 Climbing Denver Center
03:09PM 40.0942 -101.7706 82° East 519 597 38,100 540 Climbing Denver Center
03:11PM 40.1308 -101.3789 83° East 523 602 39,000 240 Climbing Denver Center
03:12PM 40.1539 -101.1394 83° East 523 602 39,000  Level Denver Center
03:13PM 40.1714 -100.9606 83° East 522 601 39,000  Level Denver Center
03:14PM 40.1894 -100.7528 83° East 519 597 39,000  Level Denver Center
03:15PM 40.2042 -100.5742 84° East 519 597 39,000  Level Denver Center
03:16PM 40.2064 -100.3647 89° East 521 600 39,000  Level Denver Center
03:17PM 40.2103 -100.1856 88° East 519 597 39,000  Level Denver Center
03:18PM 40.2128 -99.9750 89° East 520 598 39,000  Level Denver Center
03:19PM 40.2161 -99.7328 89° East 523 602 39,000  Level Denver Center
03:20PM 40.2181 -99.5539 89° East 518 596 39,000  Level Denver Center
03:21PM 40.2186 -99.3428 90° East 521 600 39,000  Level Denver Center
03:22PM 40.2208 -99.1614 89° East 521 600 39,000  Level Denver Center
03:23PM 40.2214 -98.9489 90° East 524 603 39,000  Level Denver Center
03:24PM 40.2228 -98.8547 89° East 522 601 39,000  Level Minneapolis Center
03:25PM 40.2228 -98.6631 90° East 524 603 39,000  Level Minneapolis Center
03:26PM 40.2236 -98.4700 90° East 528 608 39,000  Level Minneapolis Center
03:27PM 40.2208 -98.2781 91° East 529 609 39,000  Level Minneapolis Center
03:28PM 40.2211 -98.0881 90° East 528 608 39,000  Level Minneapolis Center
03:29PM 40.2211 -97.8603 90° East 525 604 39,000  Level Minneapolis Center
03:30PM 40.2203 -97.6703 90° East 524 603 39,000  Level Minneapolis Center
03:31PM 40.2186 -97.4811 91° East 523 602 39,000  Level Minneapolis Center
03:32PM 40.2167 -97.2928 91° East 522 601 39,000  Level Minneapolis Center
03:33PM 40.2144 -97.1031 91° East 522 601 39,000  Level Minneapolis Center
03:34PM 40.2111 -96.9139 91° East 522 601 39,000  Level Minneapolis Center
03:35PM 40.2067 -96.6831 91° East 525 604 39,000  Level Minneapolis Center
03:36PM 40.2044 -96.4942 91° East 523 602 39,000  Level Minneapolis Center
03:37PM 40.2014 -96.3039 91° East 524 603 39,000  Level Minneapolis Center
03:38PM 40.1983 -96.1175 91° East 520 598 39,000  Level Minneapolis Center
03:39PM 40.1989 -95.9272 90° East 524 603 39,000  Level Minneapolis Center
03:40PM 40.1983 -95.7339 90° East 530 610 39,000  Level Minneapolis Center
03:42PM 40.1964 -95.5053 91° East 528 608 39,000  Level Minneapolis Center
03:43PM 40.1967 -95.3139 90° East 528 608 39,000  Level Minneapolis Center
03:44PM 40.1919 -95.1247 92° East 525 604 39,000  Level Minneapolis Center
03:45PM 40.1911 -94.9317 90° East 530 610 39,000  Level Minneapolis Center
03:46PM 40.1889 -94.7375 91° East 534 615 39,000  Level Minneapolis Center
03:47PM 40.1847 -94.5311 91° East 533 613 39,000  Level Minneapolis Center
03:48PM 40.1806 -94.3589 92° East 536 617 39,000  Level Kansas City Center
03:49PM 40.1767 -94.1417 91° East 535 616 39,000  Level Kansas City Center
03:50PM 40.1689 -93.9511 93° East 540 621 39,000  Level Kansas City Center
03:51PM 40.1647 -93.7608 92° East 534 615 39,000  Level Kansas City Center
03:52PM 40.1606 -93.5711 92° East 529 609 39,000  Level Kansas City Center
03:53PM 40.1564 -93.3803 92° East 529 609 39,000  Level Kansas City Center
03:54PM 40.1514 -93.1533 92° East 528 608 39,000  Level Kansas City Center
03:55PM 40.1467 -92.9747 92° East 524 603 39,000  Level Kansas City Center
03:57PM 40.1325 -92.5714 93° East 534 615 39,000  Level Kansas City Center
03:58PM 40.1144 -92.3575 96° East 531 611 39,000  Level Kansas City Center
03:59PM 40.0975 -92.1719 97° East 537 618 39,000  Level Kansas City Center
04:00PM 40.0792 -91.9811 97° East 536 617 39,000  Level Kansas City Center
04:01PM 40.0614 -91.7900 97° East 535 616 39,000  Level Kansas City Center
04:02PM 40.0378 -91.5625 98° East 534 615 39,000  Level Kansas City Center
04:03PM 40.0200 -91.3722 97° East 532 612 39,000  Level Kansas City Center
04:04PM 40.0011 -91.1844 97° East 529 609 39,000  Level Kansas City Center
04:06PM 39.9772 -90.9604 98° East  Level FlightAware Approximate
04:06PM 39.9628 -90.8053 98° East 524 603 39,000  Level Kansas City Center
04:07PM 39.9397 -90.5797 98° East 526 605 39,000  Level Kansas City Center
04:08PM 39.9192 -90.3931 98° East 525 604 39,000  Level Kansas City Center
04:09PM 39.8983 -90.2047 98° East 526 605 39,000  Level Kansas City Center
04:10PM 39.8775 -90.0153 98° East 530 610 39,000  Level Kansas City Center
04:11PM 39.8567 -89.8281 98° East 529 609 39,000  Level Kansas City Center
04:12PM 39.8383 -89.6386 97° East 531 611 39,000  Level Kansas City Center
04:14PM 39.8419 -89.2867 89° East 538 619 39,000  Level Indianapolis Center
04:15PM 39.8422 -89.2197 90° East 530 610 39,000  Level Kansas City Center
04:16PM 39.8417 -89.0283 90° East 532 612 39,000  Level Kansas City Center
04:17PM 39.8417 -88.8394 90° East 529 609 39,000  Level Kansas City Center
04:18PM 39.8422 -88.6497 90° East 527 606 39,000  Level Kansas City Center
04:19PM 39.8425 -88.4214 90° East 527 606 39,000  Level Kansas City Center
04:20PM 39.8417 -88.2314 90° East 527 606 39,000  Level Kansas City Center
04:20PM 39.8378 -88.1056 92° East 523 602 39,000  Level Indianapolis Center
04:21PM 39.8372 -87.9161 90° East 522 601 39,000  Level Indianapolis Center
04:22PM 39.8361 -87.7275 90° East 520 598 39,000  Level Indianapolis Center
04:23PM 39.8333 -87.5378 91° East 521 600 39,000  Level Indianapolis Center
04:24PM 39.8317 -87.3489 91° East 521 600 39,000  Level Indianapolis Center
04:25PM 39.8289 -87.1275 91° East 520 598 39,000  Level Indianapolis Center
04:27PM 39.8261 -86.9378 91° East 521 600 39,000  Level Indianapolis Center
04:28PM 39.8231 -86.7472 91° East 524 603 39,000  Level Indianapolis Center
04:29PM 39.8500 -86.5611 79° East 519 597 39,000  Level Indianapolis Center
04:30PM 39.8772 -86.3728 79° East 519 597 39,000  Level Indianapolis Center
04:31PM 39.9044 -86.1831 79° East 519 597 39,000  Level Indianapolis Center
04:32PM 39.9231 -85.9944 83° East 520 598 39,000  Level Indianapolis Center
04:33PM 39.9294 -85.8033 87° East 524 603 39,000  Level Indianapolis Center
04:34PM 39.9369 -85.6128 87° East 522 601 39,000  Level Indianapolis Center
04:35PM 39.9428 -85.4228 88° East 522 601 39,000  Level Indianapolis Center
04:36PM 39.9519 -85.2019 87° East 521 600 39,000  Level Indianapolis Center
04:37PM 39.9578 -85.0114 88° East 522 601 39,000  Level Indianapolis Center
04:38PM 39.9631 -84.8378 88° East 520 598 39,000  Level Indianapolis Center
04:39PM 39.9683 -84.6156 88° East 520 598 39,000  Level Indianapolis Center
04:40PM 39.9750 -84.4247 87° East 521 600 39,000  Level Indianapolis Center
04:41PM 39.9797 -84.2342 88° East 521 600 39,000  Level Indianapolis Center
04:42PM 39.9850 -84.0456 88° East 516 594 39,000  Level Indianapolis Center
04:43PM 39.9894 -83.8572 88° East 514 592 39,000  Level Indianapolis Center
04:44PM 39.9922 -83.6669 89° East 516 594 39,000  Level Indianapolis Center
04:45PM 39.9969 -83.4761 88° East 513 590 39,000  Level Indianapolis Center
04:46PM 40.0008 -83.2825 88° East 518 596 39,000  Level Indianapolis Center
04:47PM 40.0022 -83.0919 89° East 517 595 39,000  Level Indianapolis Center
04:48PM 40.0067 -82.9022 88° East 518 596 39,000  Level Indianapolis Center
04:49PM 40.0086 -82.7125 89° East 518 596 39,000  Level Indianapolis Center
04:50PM 40.0114 -82.4903 89° East 521 600 39,000  Level Indianapolis Center
04:51PM 40.0128 -82.2992 89° East 522 601 39,000  Level Indianapolis Center
04:52PM 40.0150 -82.1072 89° East 524 603 39,000  Level Indianapolis Center
04:53PM 40.0153 -81.9181 90° East 520 598 39,000  Level Indianapolis Center
04:54PM 40.0164 -81.7131 90° East 519 597 39,000  Level Indianapolis Center
04:55PM 40.0114 -81.5247 92° East 516 594 39,000  Level Indianapolis Center
04:57PM 39.9697 -81.3439 107° East 517 595 39,000  Level Indianapolis Center
04:58PM 39.9275 -81.1694 107° East 519 597 39,000  Level Indianapolis Center
04:58PM 39.8975 -81.0350 106° East 514 592 39,000  Level Cleveland Center
04:59PM 39.8522 -80.8589 108° East 519 597 39,000  Level Cleveland Center
05:01PM 39.7522 -80.4742 109° East 513 590 39,000 -120 Level Washington Center
05:02PM 39.7072 -80.2986 108° East 513 590 38,800 -1,380 Descending Washington Center
05:03PM 39.6597 -80.1256 110° East 513 590 36,300 -2,700 Descending Washington Center
05:04PM 39.6156 -79.9639 109° East 519 597 33,400 -2,940 Descending Washington Center
05:05PM 39.5675 -79.7914 110° East 514 592 30,500 -2,700 Descending Washington Center
05:06PM 39.5233 -79.6192 108° East 514 592 28,000 -1,800 Descending Washington Center
05:07PM 39.4872 -79.4503 105° East 509 586 27,000 -1,680 Descending Washington Center
05:08PM 39.4514 -79.2631 104° East 498 573 24,700 -2,340 Descending Washington Center
05:09PM 39.4231 -79.0978 102° East 481 554 22,400 -2,220 Descending Washington Center
05:10PM 39.3919 -78.9431 105° East 462 532 20,300 -2,040 Descending Washington Center
05:11PM 39.3647 -78.7942 103° East 439 505 18,400 -2,040 Descending Washington Center
05:12PM 39.3414 -78.6536 102° East 415 478 16,300 -2,100 Descending Washington Center
05:13PM 39.3156 -78.5156 104° East 408 470 14,200 -2,100 Descending Washington Center
05:14PM 39.2897 -78.3806 104° East 395 455 12,200 -1,620 Descending Washington Center
05:15PM 39.2378 -78.2739 122° Southeast 369 425 11,000 -1,200 Descending Washington Center
05:16PM 39.1878 -78.1783 124° Southeast 340 391 9,800 -1,320 Descending Washington Center
05:17PM 39.1397 -78.0883 125° Southeast 323 372 8,500 -1,440 Descending Washington Center
05:18PM 39.0956 -78.0042 124° Southeast 300 345 7,000 -840 Descending Washington Center
05:19PM 39.0514 -77.9222 125° Southeast 287 330 6,900 -120 Descending Washington Center
05:20PM 39.0150 -77.8544 125° Southeast 269 310 6,800 -480 Descending Washington Center
05:21PM 38.9689 -77.7675 124° Southeast 269 310 6,000 -420 Descending Washington Center
05:22PM 38.9578 -77.6844 100° East 263 303 6,000  Level Washington Center
05:23PM 38.9333 -77.6167 115° Southeast 235 270 6,000  Level Potomac TRACON
05:24PM 38.8667 -77.5833 159° South 229 264 6,000 -480 Level Potomac TRACON
05:25PM 38.8167 -77.5667 165° South 220 253 5,100 -1,080 Descending Potomac TRACON
05:26PM 38.7500 -77.5833 191° South 220 253 4,000 -600 Descending Potomac TRACON
05:27PM 38.7333 -77.5167 108° East 191 220 4,000 -480 Level Potomac TRACON
05:28PM 38.7667 -77.4667 49° Northeast 182 209 3,100 -840 Descending Potomac TRACON
05:29PM 38.8167 -77.4667 360° North 181 208 2,400 -660 Descending Potomac TRACON
05:30PM 38.8667 -77.4667 360° North 173 199 1,800 -720 Descending Potomac TRACON
05:31PM 38.9167 -77.4667 360° North 148 170 1,000 -840 Descending Potomac TRACON
05:33PM 38.9333 -77.4500 15° North  Level FlightAware Approximate
05:40PM 38.9474 -77.4599 15° North  Level Estimated
05:41PM 38.9474 -77.4599 15° North  Level Estimated